Dallas, TX (75205)

8:00 AM CDT on September 04, 2015 (GMT -0500)
Highland Park | | Change Station
CLOSE
Current Station
Personal Weather Station
Location: Dallas, TX
Elevation: 541 ft
Nearby Weather Stations

Elev 541 ft 32.84 °N, 96.80 °W | Updated 8 seconds ago

Clear
Clear
77.0 °F
Feels Like 78 °F
N
0.0
Wind Variable Wind from SSW
Gusts 5.0 mph

Today
High -- | Low -- °F
--% Chance of Precip.
Yesterday
High -- | Low -- °F
Precip. -- in
7:03 AM 7:48 PM
Waning Gibbous, 59% visible
Pressure 29.93 in
Visibility 10.0 miles
Clouds Few 10000 ft
Few 30000 ft
Heat Index 78 °F
Dew Point 71 °F
Humidity 83%
Rainfall 0.00 in
Snow Depth Not available.
UV 0 out of 12
Pollen 10.20 out of 12
Air Quality Not available.
Flu Activity Not available.
METAR KDAL 041253Z 17006KT 10SM FEW100 FEW300 26/21 A2995 RMK AO2 SLP134 T02610211
Pressure 29.93 in
Visibility 10.0 miles
Clouds Few 10000 ft
Few 30000 ft
Heat Index 78 °F
Dew Point 71 °F
Humidity 83%
Rainfall 0.00 in
Snow Depth Not available.
UV 0 out of 12
Pollen 10.20 out of 12
Air Quality Not available.
Flu Activity Not available.
METAR KDAL 041253Z 17006KT 10SM FEW100 FEW300 26/21 A2995 RMK AO2 SLP134 T02610211

10-Day Weather Forecast

×

Almanac

Astronomy

Sep. 04, 2015 Rise Set
Actual Time
Civil Twilight
Nautical Twilight
Astronomical Twilight
Moon
Length of Visible Light
Length of Day
Tomorrow will be .
, % of the Moon is Illuminated

Today's Extremes

State Highs State Lows

Community

WunderPhotos

Upload Photos

1,852,179 photos uploaded!

WunderBlogs® & News

Nearby

Air Quality

  Air Quality AQ Index Pollutant
Not available.

Snow Depth

Station Depth Elevation

Earthquake Activity

City Distance Mag. Time & Date
Minimum magnitude displayed is 2.5.

Coastal Water Temperatures

Place Temperature

Stations

Nearby Weather Stations

Station Location Temp. Windchill Dew Point Humidity Wind Precip. Elev Updated Type